sensor_id;sensor_type;location;lat;lon;timestamp;temperature;humidity
418;DHT22;49;48.530;9.200;2023-08-17T00:00:50;24.60;99.90
418;DHT22;49;48.530;9.200;2023-08-17T00:03:35;24.50;99.90
418;DHT22;49;48.530;9.200;2023-08-17T00:06:04;24.60;99.90
418;DHT22;49;48.530;9.200;2023-08-17T00:08:39;24.40;99.90
418;DHT22;49;48.530;9.200;2023-08-17T00:11:11;24.30;99.90
418;DHT22;49;48.530;9.200;2023-08-17T00:13:38;24.30;99.90
418;DHT22;49;48.530;9.200;2023-08-17T00:16:07;24.30;99.90
418;DHT22;49;48.530;9.200;2023-08-17T00:18:36;24.40;99.90
418;DHT22;49;48.530;9.200;2023-08-17T00:21:03;24.50;99.90
418;DHT22;49;48.530;9.200;2023-08-17T00:23:30;24.40;99.90
418;DHT22;49;48.530;9.200;2023-08-17T00:26:01;24.40;99.90
418;DHT22;49;48.530;9.200;2023-08-17T00:28:28;24.40;99.90
418;DHT22;49;48.530;9.200;2023-08-17T00:30:55;24.50;99.90
418;DHT22;49;48.530;9.200;2023-08-17T00:33:24;24.50;99.90
418;DHT22;49;48.530;9.200;2023-08-17T00:35:57;24.40;99.90
418;DHT22;49;48.530;9.200;2023-08-17T00:38:24;24.40;99.90
418;DHT22;49;48.530;9.200;2023-08-17T00:40:51;24.30;99.90
418;DHT22;49;48.530;9.200;2023-08-17T00:43:29;24.30;99.90
418;DHT22;49;48.530;9.200;2023-08-17T00:45:56;24.40;99.90
418;DHT22;49;48.530;9.200;2023-08-17T00:48:23;24.40;99.90
418;DHT22;49;48.530;9.200;2023-08-17T00:50:55;24.40;99.90
418;DHT22;49;48.530;9.200;2023-08-17T00:53:27;24.30;99.90
418;DHT22;49;48.530;9.200;2023-08-17T00:55:55;24.30;99.90
418;DHT22;49;48.530;9.200;2023-08-17T00:58:23;24.20;99.90
418;DHT22;49;48.530;9.200;2023-08-17T01:00:57;24.20;99.90
418;DHT22;49;48.530;9.200;2023-08-17T01:03:28;24.10;99.90
418;DHT22;49;48.530;9.200;2023-08-17T01:05:56;24.10;99.90
418;DHT22;49;48.530;9.200;2023-08-17T01:08:30;24.10;99.90
418;DHT22;49;48.530;9.200;2023-08-17T01:11:02;24.20;99.90
418;DHT22;49;48.530;9.200;2023-08-17T01:13:42;24.10;99.90
418;DHT22;49;48.530;9.200;2023-08-17T01:16:19;24.10;99.90
418;DHT22;49;48.530;9.200;2023-08-17T01:18:50;24.20;99.90
418;DHT22;49;48.530;9.200;2023-08-17T01:21:21;24.10;99.90
418;DHT22;49;48.530;9.200;2023-08-17T01:23:51;24.10;99.90
418;DHT22;49;48.530;9.200;2023-08-17T01:26:25;24.00;99.90
418;DHT22;49;48.530;9.200;2023-08-17T01:28:53;24.10;99.90
418;DHT22;49;48.530;9.200;2023-08-17T01:31:24;24.10;99.90
418;DHT22;49;48.530;9.200;2023-08-17T01:34:00;24.00;99.90
418;DHT22;49;48.530;9.200;2023-08-17T01:36:33;23.90;99.90
418;DHT22;49;48.530;9.200;2023-08-17T01:39:05;23.90;99.90
418;DHT22;49;48.530;9.200;2023-08-17T01:41:33;23.90;99.90
418;DHT22;49;48.530;9.200;2023-08-17T01:44:00;23.90;99.90
418;DHT22;49;48.530;9.200;2023-08-17T01:46:31;23.80;99.90
418;DHT22;49;48.530;9.200;2023-08-17T01:49:01;23.80;99.90
418;DHT22;49;48.530;9.200;2023-08-17T01:51:30;23.90;99.90
418;DHT22;49;48.530;9.200;2023-08-17T01:53:57;23.90;99.90
418;DHT22;49;48.530;9.200;2023-08-17T01:56:25;24.00;99.90
418;DHT22;49;48.530;9.200;2023-08-17T01:58:52;23.90;99.90
418;DHT22;49;48.530;9.200;2023-08-17T02:01:19;23.90;99.90
418;DHT22;49;48.530;9.200;2023-08-17T02:03:49;23.90;99.90
418;DHT22;49;48.530;9.200;2023-08-17T02:06:15;23.80;99.90
418;DHT22;49;48.530;9.200;2023-08-17T02:08:45;23.70;99.90
418;DHT22;49;48.530;9.200;2023-08-17T02:11:12;23.70;99.90
418;DHT22;49;48.530;9.200;2023-08-17T02:13:43;23.80;99.90
418;DHT22;49;48.530;9.200;2023-08-17T02:16:10;23.70;99.90
418;DHT22;49;48.530;9.200;2023-08-17T02:18:38;23.60;99.90
418;DHT22;49;48.530;9.200;2023-08-17T02:21:10;23.40;99.90
418;DHT22;49;48.530;9.200;2023-08-17T02:23:37;23.40;99.90
418;DHT22;49;48.530;9.200;2023-08-17T02:26:04;23.40;99.90
418;DHT22;49;48.530;9.200;2023-08-17T02:28:33;23.20;99.90
418;DHT22;49;48.530;9.200;2023-08-17T02:31:02;23.20;99.90
418;DHT22;49;48.530;9.200;2023-08-17T02:33:29;23.20;99.90
418;DHT22;49;48.530;9.200;2023-08-17T02:35:56;23.20;99.90
418;DHT22;49;48.530;9.200;2023-08-17T02:38:23;23.20;99.90
418;DHT22;49;48.530;9.200;2023-08-17T02:40:50;23.30;99.90
418;DHT22;49;48.530;9.200;2023-08-17T02:43:17;23.40;99.90
418;DHT22;49;48.530;9.200;2023-08-17T02:45:44;23.40;99.90
418;DHT22;49;48.530;9.200;2023-08-17T02:48:14;23.30;99.90
418;DHT22;49;48.530;9.200;2023-08-17T02:50:41;23.30;99.90
418;DHT22;49;48.530;9.200;2023-08-17T02:53:11;23.30;99.90
418;DHT22;49;48.530;9.200;2023-08-17T02:55:38;23.20;99.90
418;DHT22;49;48.530;9.200;2023-08-17T02:58:07;23.20;99.90
418;DHT22;49;48.530;9.200;2023-08-17T03:00:34;23.30;99.90
418;DHT22;49;48.530;9.200;2023-08-17T03:03:01;23.40;99.90
418;DHT22;49;48.530;9.200;2023-08-17T03:05:33;23.40;99.90
418;DHT22;49;48.530;9.200;2023-08-17T03:08:00;23.40;99.90
418;DHT22;49;48.530;9.200;2023-08-17T03:10:27;23.30;99.90
418;DHT22;49;48.530;9.200;2023-08-17T03:12:57;23.20;99.90
418;DHT22;49;48.530;9.200;2023-08-17T03:15:24;23.20;99.90
418;DHT22;49;48.530;9.200;2023-08-17T03:17:50;23.10;99.90
418;DHT22;49;48.530;9.200;2023-08-17T03:20:19;22.90;99.90
418;DHT22;49;48.530;9.200;2023-08-17T03:22:51;22.80;99.90
418;DHT22;49;48.530;9.200;2023-08-17T03:25:24;22.80;99.90
418;DHT22;49;48.530;9.200;2023-08-17T03:27:51;22.60;99.90
418;DHT22;49;48.530;9.200;2023-08-17T03:30:21;22.50;99.90
418;DHT22;49;48.530;9.200;2023-08-17T03:32:48;22.50;99.90
418;DHT22;49;48.530;9.200;2023-08-17T03:35:16;22.60;99.90
418;DHT22;49;48.530;9.200;2023-08-17T03:37:43;22.60;99.90
418;DHT22;49;48.530;9.200;2023-08-17T03:40:12;22.40;99.90
418;DHT22;49;48.530;9.200;2023-08-17T03:42:44;22.40;99.90
418;DHT22;49;48.530;9.200;2023-08-17T03:45:13;22.50;99.90
418;DHT22;49;48.530;9.200;2023-08-17T03:47:39;22.40;99.90
418;DHT22;49;48.530;9.200;2023-08-17T03:50:09;22.40;99.90
418;DHT22;49;48.530;9.200;2023-08-17T03:52:36;22.50;99.90
418;DHT22;49;48.530;9.200;2023-08-17T03:55:03;22.70;99.90
418;DHT22;49;48.530;9.200;2023-08-17T03:57:33;22.80;99.90
418;DHT22;49;48.530;9.200;2023-08-17T04:00:04;22.90;99.90
418;DHT22;49;48.530;9.200;2023-08-17T04:02:32;23.00;99.90
418;DHT22;49;48.530;9.200;2023-08-17T04:05:09;23.00;99.90
418;DHT22;49;48.530;9.200;2023-08-17T04:07:36;22.90;99.90
418;DHT22;49;48.530;9.200;2023-08-17T04:10:07;22.90;99.90
418;DHT22;49;48.530;9.200;2023-08-17T04:12:38;23.00;99.90
418;DHT22;49;48.530;9.200;2023-08-17T04:15:07;23.20;99.90
418;DHT22;49;48.530;9.200;2023-08-17T04:17:34;23.20;99.90
418;DHT22;49;48.530;9.200;2023-08-17T04:20:04;23.40;99.90
418;DHT22;49;48.530;9.200;2023-08-17T04:22:31;23.40;99.90
418;DHT22;49;48.530;9.200;2023-08-17T04:24:58;23.60;99.90
418;DHT22;49;48.530;9.200;2023-08-17T04:27:28;23.50;99.90
418;DHT22;49;48.530;9.200;2023-08-17T04:29:57;23.50;99.90
418;DHT22;49;48.530;9.200;2023-08-17T04:32:23;23.30;99.90
418;DHT22;49;48.530;9.200;2023-08-17T04:34:50;23.30;99.90
418;DHT22;49;48.530;9.200;2023-08-17T04:37:20;23.40;99.90
418;DHT22;49;48.530;9.200;2023-08-17T04:39:49;23.50;99.90
418;DHT22;49;48.530;9.200;2023-08-17T04:42:19;23.60;99.90
418;DHT22;49;48.530;9.200;2023-08-17T04:44:48;23.40;99.90
418;DHT22;49;48.530;9.200;2023-08-17T04:47:19;23.50;99.90
418;DHT22;49;48.530;9.200;2023-08-17T04:49:52;23.60;99.90
418;DHT22;49;48.530;9.200;2023-08-17T04:52:19;23.50;99.90
418;DHT22;49;48.530;9.200;2023-08-17T04:54:46;23.50;99.90
418;DHT22;49;48.530;9.200;2023-08-17T04:57:14;23.50;99.90
418;DHT22;49;48.530;9.200;2023-08-17T04:59:44;23.50;99.90
418;DHT22;49;48.530;9.200;2023-08-17T05:02:11;23.70;99.90
418;DHT22;49;48.530;9.200;2023-08-17T05:04:42;23.80;99.90
418;DHT22;49;48.530;9.200;2023-08-17T05:07:12;23.70;99.90
418;DHT22;49;48.530;9.200;2023-08-17T05:09:42;23.80;99.90
418;DHT22;49;48.530;9.200;2023-08-17T05:12:09;23.90;99.90
418;DHT22;49;48.530;9.200;2023-08-17T05:14:38;24.00;99.90
418;DHT22;49;48.530;9.200;2023-08-17T05:17:06;23.90;99.90
418;DHT22;49;48.530;9.200;2023-08-17T05:19:33;24.00;99.90
418;DHT22;49;48.530;9.200;2023-08-17T05:22:01;24.10;99.90
418;DHT22;49;48.530;9.200;2023-08-17T05:24:28;24.00;99.90
418;DHT22;49;48.530;9.200;2023-08-17T05:26:55;23.90;99.90
418;DHT22;49;48.530;9.200;2023-08-17T05:29:23;23.90;99.90
418;DHT22;49;48.530;9.200;2023-08-17T05:31:54;24.00;99.90
418;DHT22;49;48.530;9.200;2023-08-17T05:34:23;23.90;99.90
418;DHT22;49;48.530;9.200;2023-08-17T05:36:50;24.10;99.90
418;DHT22;49;48.530;9.200;2023-08-17T05:39:18;24.20;99.90
418;DHT22;49;48.530;9.200;2023-08-17T05:41:45;24.40;99.90
418;DHT22;49;48.530;9.200;2023-08-17T05:44:12;24.50;99.90
418;DHT22;49;48.530;9.200;2023-08-17T05:46:40;24.60;99.90
418;DHT22;49;48.530;9.200;2023-08-17T05:49:07;24.50;99.90
418;DHT22;49;48.530;9.200;2023-08-17T05:51:36;24.60;99.90
418;DHT22;49;48.530;9.200;2023-08-17T05:54:04;24.60;99.90
418;DHT22;49;48.530;9.200;2023-08-17T05:56:34;24.60;99.90
418;DHT22;49;48.530;9.200;2023-08-17T05:59:03;24.60;99.90
418;DHT22;49;48.530;9.200;2023-08-17T06:01:31;24.60;99.90
418;DHT22;49;48.530;9.200;2023-08-17T06:03:58;24.60;99.90
418;DHT22;49;48.530;9.200;2023-08-17T06:06:25;24.70;99.90
418;DHT22;49;48.530;9.200;2023-08-17T06:08:53;24.70;99.90
418;DHT22;49;48.530;9.200;2023-08-17T06:11:20;24.70;99.90
418;DHT22;49;48.530;9.200;2023-08-17T06:13:51;24.70;99.90
418;DHT22;49;48.530;9.200;2023-08-17T06:16:21;24.80;99.90
418;DHT22;49;48.530;9.200;2023-08-17T06:18:48;24.80;99.90
418;DHT22;49;48.530;9.200;2023-08-17T06:21:15;24.80;99.90
418;DHT22;49;48.530;9.200;2023-08-17T06:23:41;24.70;99.90
418;DHT22;49;48.530;9.200;2023-08-17T06:26:08;24.30;99.90
418;DHT22;49;48.530;9.200;2023-08-17T06:28:35;23.80;99.90
418;DHT22;49;48.530;9.200;2023-08-17T06:31:04;23.90;99.90
418;DHT22;49;48.530;9.200;2023-08-17T06:33:31;24.40;99.90
418;DHT22;49;48.530;9.200;2023-08-17T06:35:57;24.60;99.90
418;DHT22;49;48.530;9.200;2023-08-17T06:38:24;24.80;99.90
418;DHT22;49;48.530;9.200;2023-08-17T06:40:51;24.60;99.90
418;DHT22;49;48.530;9.200;2023-08-17T06:43:18;24.00;99.90
418;DHT22;49;48.530;9.200;2023-08-17T06:45:45;23.90;99.90
418;DHT22;49;48.530;9.200;2023-08-17T06:48:14;23.60;99.90
418;DHT22;49;48.530;9.200;2023-08-17T06:50:41;23.50;99.90
418;DHT22;49;48.530;9.200;2023-08-17T06:53:08;23.70;99.90
418;DHT22;49;48.530;9.200;2023-08-17T06:55:34;23.80;99.90
418;DHT22;49;48.530;9.200;2023-08-17T06:58:01;24.30;99.90
418;DHT22;49;48.530;9.200;2023-08-17T07:00:28;24.80;99.90
418;DHT22;49;48.530;9.200;2023-08-17T07:02:55;25.00;99.90
418;DHT22;49;48.530;9.200;2023-08-17T07:05:23;25.20;99.90
418;DHT22;49;48.530;9.200;2023-08-17T07:07:50;25.40;99.90
418;DHT22;49;48.530;9.200;2023-08-17T07:10:20;25.70;99.90
418;DHT22;49;48.530;9.200;2023-08-17T07:12:47;25.70;99.90
418;DHT22;49;48.530;9.200;2023-08-17T07:15:14;25.80;99.90
418;DHT22;49;48.530;9.200;2023-08-17T07:17:41;25.50;99.90
418;DHT22;49;48.530;9.200;2023-08-17T07:20:09;25.80;99.90
418;DHT22;49;48.530;9.200;2023-08-17T07:22:38;26.00;99.90
418;DHT22;49;48.530;9.200;2023-08-17T07:25:05;26.00;99.90
418;DHT22;49;48.530;9.200;2023-08-17T07:27:34;25.80;99.90
418;DHT22;49;48.530;9.200;2023-08-17T07:30:01;25.80;99.90
418;DHT22;49;48.530;9.200;2023-08-17T07:32:28;25.70;99.90
418;DHT22;49;48.530;9.200;2023-08-17T07:34:55;25.80;99.90
418;DHT22;49;48.530;9.200;2023-08-17T07:37:22;25.80;99.90
418;DHT22;49;48.530;9.200;2023-08-17T07:39:50;26.10;99.90
418;DHT22;49;48.530;9.200;2023-08-17T07:42:17;26.20;99.90
418;DHT22;49;48.530;9.200;2023-08-17T07:44:44;26.20;99.90
418;DHT22;49;48.530;9.200;2023-08-17T07:47:11;26.20;99.90
418;DHT22;49;48.530;9.200;2023-08-17T07:49:37;26.30;99.90
418;DHT22;49;48.530;9.200;2023-08-17T07:52:04;26.20;99.90
418;DHT22;49;48.530;9.200;2023-08-17T07:54:31;25.60;99.90
418;DHT22;49;48.530;9.200;2023-08-17T07:57:00;25.50;99.90
418;DHT22;49;48.530;9.200;2023-08-17T07:59:28;25.90;99.90
418;DHT22;49;48.530;9.200;2023-08-17T08:01:55;26.30;99.90
418;DHT22;49;48.530;9.200;2023-08-17T08:04:22;26.60;99.90
418;DHT22;49;48.530;9.200;2023-08-17T08:06:51;26.80;99.90
418;DHT22;49;48.530;9.200;2023-08-17T08:09:21;27.00;99.90
418;DHT22;49;48.530;9.200;2023-08-17T08:11:48;27.00;99.90
418;DHT22;49;48.530;9.200;2023-08-17T08:14:17;27.00;99.90
418;DHT22;49;48.530;9.200;2023-08-17T08:16:47;27.10;99.90
418;DHT22;49;48.530;9.200;2023-08-17T08:19:14;27.20;99.90
418;DHT22;49;48.530;9.200;2023-08-17T08:21:41;27.10;99.90
418;DHT22;49;48.530;9.200;2023-08-17T08:24:10;27.20;99.90
418;DHT22;49;48.530;9.200;2023-08-17T08:26:37;27.20;99.90
418;DHT22;49;48.530;9.200;2023-08-17T08:29:04;27.30;99.90
418;DHT22;49;48.530;9.200;2023-08-17T08:31:33;27.20;99.90
418;DHT22;49;48.530;9.200;2023-08-17T08:34:00;27.20;99.90
418;DHT22;49;48.530;9.200;2023-08-17T08:36:29;27.00;99.90
418;DHT22;49;48.530;9.200;2023-08-17T08:38:56;27.30;99.90
418;DHT22;49;48.530;9.200;2023-08-17T08:41:25;27.40;99.90
418;DHT22;49;48.530;9.200;2023-08-17T08:43:55;27.40;99.90
418;DHT22;49;48.530;9.200;2023-08-17T08:46:23;27.40;99.90
418;DHT22;49;48.530;9.200;2023-08-17T08:48:54;27.30;99.90
418;DHT22;49;48.530;9.200;2023-08-17T08:51:27;27.80;99.90
418;DHT22;49;48.530;9.200;2023-08-17T08:54:01;27.80;99.90
418;DHT22;49;48.530;9.200;2023-08-17T08:56:32;28.10;99.90
418;DHT22;49;48.530;9.200;2023-08-17T08:59:02;28.20;97.40
418;DHT22;49;48.530;9.200;2023-08-17T09:01:30;28.40;94.80
418;DHT22;49;48.530;9.200;2023-08-17T09:04:02;28.80;95.00
418;DHT22;49;48.530;9.200;2023-08-17T09:06:30;29.20;90.50
418;DHT22;49;48.530;9.200;2023-08-17T09:08:57;29.00;93.00
418;DHT22;49;48.530;9.200;2023-08-17T09:11:26;29.30;90.10
418;DHT22;49;48.530;9.200;2023-08-17T09:13:54;29.40;89.80
418;DHT22;49;48.530;9.200;2023-08-17T09:16:21;29.20;89.90
418;DHT22;49;48.530;9.200;2023-08-17T09:18:49;29.60;84.20
418;DHT22;49;48.530;9.200;2023-08-17T09:21:24;29.00;90.50
418;DHT22;49;48.530;9.200;2023-08-17T09:23:52;28.80;92.90
418;DHT22;49;48.530;9.200;2023-08-17T09:26:21;28.80;91.80
418;DHT22;49;48.530;9.200;2023-08-17T09:28:49;28.60;93.40
418;DHT22;49;48.530;9.200;2023-08-17T09:31:18;27.90;94.10
418;DHT22;49;48.530;9.200;2023-08-17T09:33:49;27.70;99.90
418;DHT22;49;48.530;9.200;2023-08-17T09:36:20;28.20;96.50
418;DHT22;49;48.530;9.200;2023-08-17T09:38:52;28.60;95.90
418;DHT22;49;48.530;9.200;2023-08-17T09:41:20;29.10;90.30
418;DHT22;49;48.530;9.200;2023-08-17T09:43:47;29.60;87.70
418;DHT22;49;48.530;9.200;2023-08-17T09:46:15;30.40;77.90
418;DHT22;49;48.530;9.200;2023-08-17T09:48:43;30.80;72.80
418;DHT22;49;48.530;9.200;2023-08-17T09:51:14;31.40;67.80
418;DHT22;49;48.530;9.200;2023-08-17T09:53:41;31.80;62.00
418;DHT22;49;48.530;9.200;2023-08-17T09:56:11;31.90;61.00
418;DHT22;49;48.530;9.200;2023-08-17T09:58:39;32.20;59.60
418;DHT22;49;48.530;9.200;2023-08-17T10:01:09;32.30;56.30
418;DHT22;49;48.530;9.200;2023-08-17T10:03:39;32.40;54.60
418;DHT22;49;48.530;9.200;2023-08-17T10:06:13;32.40;51.70
418;DHT22;49;48.530;9.200;2023-08-17T10:08:43;32.20;53.50
418;DHT22;49;48.530;9.200;2023-08-17T10:11:18;32.20;54.10
418;DHT22;49;48.530;9.200;2023-08-17T10:13:51;32.30;54.10
418;DHT22;49;48.530;9.200;2023-08-17T10:16:22;32.60;54.30
418;DHT22;49;48.530;9.200;2023-08-17T10:18:54;33.00;49.20
418;DHT22;49;48.530;9.200;2023-08-17T10:21:25;32.90;49.90
418;DHT22;49;48.530;9.200;2023-08-17T10:23:55;32.60;50.10
418;DHT22;49;48.530;9.200;2023-08-17T10:26:24;32.50;51.20
418;DHT22;49;48.530;9.200;2023-08-17T10:28:52;32.40;49.10
418;DHT22;49;48.530;9.200;2023-08-17T10:31:22;32.60;47.00
418;DHT22;49;48.530;9.200;2023-08-17T10:33:53;32.40;45.80
418;DHT22;49;48.530;9.200;2023-08-17T10:36:25;32.40;46.90
418;DHT22;49;48.530;9.200;2023-08-17T10:39:23;32.60;45.90
418;DHT22;49;48.530;9.200;2023-08-17T10:41:52;32.60;43.70
418;DHT22;49;48.530;9.200;2023-08-17T10:44:38;32.70;47.10
418;DHT22;49;48.530;9.200;2023-08-17T10:47:20;32.60;46.10
418;DHT22;49;48.530;9.200;2023-08-17T10:49:50;32.70;46.20
418;DHT22;49;48.530;9.200;2023-08-17T10:52:32;31.90;48.70
418;DHT22;49;48.530;9.200;2023-08-17T10:55:00;31.50;53.60
418;DHT22;49;48.530;9.200;2023-08-17T10:57:35;32.00;52.10
418;DHT22;49;48.530;9.200;2023-08-17T11:00:15;31.70;50.70
418;DHT22;49;48.530;9.200;2023-08-17T11:02:46;31.10;54.20
418;DHT22;49;48.530;9.200;2023-08-17T11:05:40;31.60;51.50
418;DHT22;49;48.530;9.200;2023-08-17T11:08:09;32.10;48.60
418;DHT22;49;48.530;9.200;2023-08-17T11:10:39;32.60;43.50
418;DHT22;49;48.530;9.200;2023-08-17T11:13:25;32.60;44.20
418;DHT22;49;48.530;9.200;2023-08-17T11:15:58;32.80;44.30
418;DHT22;49;48.530;9.200;2023-08-17T11:18:25;32.90;43.10
418;DHT22;49;48.530;9.200;2023-08-17T11:20:53;32.70;43.90
418;DHT22;49;48.530;9.200;2023-08-17T11:23:21;33.00;42.60
418;DHT22;49;48.530;9.200;2023-08-17T11:25:52;33.00;40.00
418;DHT22;49;48.530;9.200;2023-08-17T11:28:22;33.20;37.70
418;DHT22;49;48.530;9.200;2023-08-17T11:30:58;33.50;41.30
418;DHT22;49;48.530;9.200;2023-08-17T11:33:25;33.00;44.40
418;DHT22;49;48.530;9.200;2023-08-17T11:35:54;33.20;42.00
418;DHT22;49;48.530;9.200;2023-08-17T11:38:29;33.40;42.10
418;DHT22;49;48.530;9.200;2023-08-17T11:41:00;33.60;40.30
418;DHT22;49;48.530;9.200;2023-08-17T11:43:29;33.70;39.80
418;DHT22;49;48.530;9.200;2023-08-17T11:45:58;33.60;40.30
418;DHT22;49;48.530;9.200;2023-08-17T11:48:26;33.40;39.90
418;DHT22;49;48.530;9.200;2023-08-17T11:50:53;33.40;40.10
418;DHT22;49;48.530;9.200;2023-08-17T11:53:21;33.50;40.20
418;DHT22;49;48.530;9.200;2023-08-17T11:55:48;33.70;38.50
418;DHT22;49;48.530;9.200;2023-08-17T11:58:15;33.00;40.30
418;DHT22;49;48.530;9.200;2023-08-17T12:00:44;32.60;44.00
418;DHT22;49;48.530;9.200;2023-08-17T12:03:14;32.20;46.00
418;DHT22;49;48.530;9.200;2023-08-17T12:05:43;31.80;50.30
418;DHT22;49;48.530;9.200;2023-08-17T12:08:10;31.50;49.90
418;DHT22;49;48.530;9.200;2023-08-17T12:10:39;31.90;47.50
418;DHT22;49;48.530;9.200;2023-08-17T12:13:06;32.30;44.70
418;DHT22;49;48.530;9.200;2023-08-17T12:15:33;32.10;46.10
418;DHT22;49;48.530;9.200;2023-08-17T12:18:03;32.30;46.00
418;DHT22;49;48.530;9.200;2023-08-17T12:20:32;32.60;42.70
418;DHT22;49;48.530;9.200;2023-08-17T12:23:03;32.80;41.70
418;DHT22;49;48.530;9.200;2023-08-17T12:25:30;33.00;39.90
418;DHT22;49;48.530;9.200;2023-08-17T12:27:58;32.80;39.70
418;DHT22;49;48.530;9.200;2023-08-17T12:30:27;32.80;41.60
418;DHT22;49;48.530;9.200;2023-08-17T12:32:55;32.20;46.30
418;DHT22;49;48.530;9.200;2023-08-17T12:35:22;32.20;45.60
418;DHT22;49;48.530;9.200;2023-08-17T12:37:51;32.30;45.30
418;DHT22;49;48.530;9.200;2023-08-17T12:40:19;32.20;45.80
418;DHT22;49;48.530;9.200;2023-08-17T12:42:46;32.00;46.60
418;DHT22;49;48.530;9.200;2023-08-17T12:45:13;31.60;48.40
418;DHT22;49;48.530;9.200;2023-08-17T12:47:41;30.90;53.40
418;DHT22;49;48.530;9.200;2023-08-17T12:50:08;30.50;58.50
418;DHT22;49;48.530;9.200;2023-08-17T12:52:35;30.20;63.00
418;DHT22;49;48.530;9.200;2023-08-17T12:55:04;30.30;62.60
418;DHT22;49;48.530;9.200;2023-08-17T12:57:31;30.60;58.40
418;DHT22;49;48.530;9.200;2023-08-17T12:59:58;31.00;55.00
418;DHT22;49;48.530;9.200;2023-08-17T13:02:25;31.30;53.40
418;DHT22;49;48.530;9.200;2023-08-17T13:04:52;31.60;50.80
418;DHT22;49;48.530;9.200;2023-08-17T13:07:18;31.70;50.60
418;DHT22;49;48.530;9.200;2023-08-17T13:09:45;31.70;49.90
418;DHT22;49;48.530;9.200;2023-08-17T13:12:14;31.70;50.10
418;DHT22;49;48.530;9.200;2023-08-17T13:14:41;31.70;50.50
418;DHT22;49;48.530;9.200;2023-08-17T13:17:08;31.60;49.30
418;DHT22;49;48.530;9.200;2023-08-17T13:19:35;31.40;49.50
418;DHT22;49;48.530;9.200;2023-08-17T13:22:02;31.40;49.90
418;DHT22;49;48.530;9.200;2023-08-17T13:24:29;31.40;49.90
418;DHT22;49;48.530;9.200;2023-08-17T13:26:57;31.50;49.40
418;DHT22;49;48.530;9.200;2023-08-17T13:29:25;31.50;50.20
418;DHT22;49;48.530;9.200;2023-08-17T13:31:52;31.30;52.10
418;DHT22;49;48.530;9.200;2023-08-17T13:34:19;31.20;53.40
418;DHT22;49;48.530;9.200;2023-08-17T13:36:46;31.30;52.90
418;DHT22;49;48.530;9.200;2023-08-17T13:39:13;31.30;53.10
418;DHT22;49;48.530;9.200;2023-08-17T13:41:40;31.40;53.50
418;DHT22;49;48.530;9.200;2023-08-17T13:44:08;31.30;54.20
418;DHT22;49;48.530;9.200;2023-08-17T13:46:36;31.20;54.40
418;DHT22;49;48.530;9.200;2023-08-17T13:49:04;31.10;55.70
418;DHT22;49;48.530;9.200;2023-08-17T13:51:31;31.10;55.50
418;DHT22;49;48.530;9.200;2023-08-17T13:53:58;31.10;55.10
418;DHT22;49;48.530;9.200;2023-08-17T13:56:25;31.10;55.90
418;DHT22;49;48.530;9.200;2023-08-17T13:58:52;31.10;57.10
418;DHT22;49;48.530;9.200;2023-08-17T14:01:19;31.00;57.20
418;DHT22;49;48.530;9.200;2023-08-17T14:03:48;31.00;57.00
418;DHT22;49;48.530;9.200;2023-08-17T14:06:14;30.90;56.00
418;DHT22;49;48.530;9.200;2023-08-17T14:08:42;30.90;57.90
418;DHT22;49;48.530;9.200;2023-08-17T14:11:09;30.80;56.20
418;DHT22;49;48.530;9.200;2023-08-17T14:13:36;30.80;54.80
418;DHT22;49;48.530;9.200;2023-08-17T14:16:04;30.80;54.70
418;DHT22;49;48.530;9.200;2023-08-17T14:18:32;30.80;56.80
418;DHT22;49;48.530;9.200;2023-08-17T14:21:00;30.90;58.60
418;DHT22;49;48.530;9.200;2023-08-17T14:23:27;31.00;62.60
418;DHT22;49;48.530;9.200;2023-08-17T14:25:54;31.00;64.70
418;DHT22;49;48.530;9.200;2023-08-17T14:28:21;30.90;66.40
418;DHT22;49;48.530;9.200;2023-08-17T14:30:48;30.80;68.60
418;DHT22;49;48.530;9.200;2023-08-17T14:33:15;30.80;70.80
418;DHT22;49;48.530;9.200;2023-08-17T14:35:42;30.60;71.50
418;DHT22;49;48.530;9.200;2023-08-17T14:38:11;30.50;69.50
418;DHT22;49;48.530;9.200;2023-08-17T14:40:42;30.30;69.20
418;DHT22;49;48.530;9.200;2023-08-17T14:43:10;29.70;71.90
418;DHT22;49;48.530;9.200;2023-08-17T14:45:39;28.90;84.50
418;DHT22;49;48.530;9.200;2023-08-17T14:48:06;28.60;88.50
418;DHT22;49;48.530;9.200;2023-08-17T14:50:33;29.00;86.80
418;DHT22;49;48.530;9.200;2023-08-17T14:53:01;29.30;81.80
418;DHT22;49;48.530;9.200;2023-08-17T14:55:30;29.70;77.90
418;DHT22;49;48.530;9.200;2023-08-17T14:57:57;30.20;73.00
418;DHT22;49;48.530;9.200;2023-08-17T15:00:25;30.50;69.60
418;DHT22;49;48.530;9.200;2023-08-17T15:02:55;30.80;66.20
418;DHT22;49;48.530;9.200;2023-08-17T15:05:23;31.00;61.20
418;DHT22;49;48.530;9.200;2023-08-17T15:07:50;31.20;59.00
418;DHT22;49;48.530;9.200;2023-08-17T15:10:17;31.20;59.00
418;DHT22;49;48.530;9.200;2023-08-17T15:12:46;31.50;57.70
418;DHT22;49;48.530;9.200;2023-08-17T15:15:13;31.60;51.50
418;DHT22;49;48.530;9.200;2023-08-17T15:17:41;31.70;51.60
418;DHT22;49;48.530;9.200;2023-08-17T15:20:08;31.40;52.00
418;DHT22;49;48.530;9.200;2023-08-17T15:22:36;31.50;53.30
418;DHT22;49;48.530;9.200;2023-08-17T15:25:18;31.50;51.70
418;DHT22;49;48.530;9.200;2023-08-17T15:27:46;31.30;51.90
418;DHT22;49;48.530;9.200;2023-08-17T15:30:13;30.80;55.50
418;DHT22;49;48.530;9.200;2023-08-17T15:32:40;30.30;60.10
418;DHT22;49;48.530;9.200;2023-08-17T15:35:09;30.40;60.80
418;DHT22;49;48.530;9.200;2023-08-17T15:37:36;31.00;58.00
418;DHT22;49;48.530;9.200;2023-08-17T15:40:05;31.30;55.70
418;DHT22;49;48.530;9.200;2023-08-17T15:42:32;31.20;55.20
418;DHT22;49;48.530;9.200;2023-08-17T15:45:01;31.20;54.50
418;DHT22;49;48.530;9.200;2023-08-17T15:47:28;31.10;54.80
418;DHT22;49;48.530;9.200;2023-08-17T15:49:55;31.40;53.60
418;DHT22;49;48.530;9.200;2023-08-17T15:52:22;31.70;50.70
418;DHT22;49;48.530;9.200;2023-08-17T15:54:49;32.00;46.60
418;DHT22;49;48.530;9.200;2023-08-17T15:57:16;32.20;45.60
418;DHT22;49;48.530;9.200;2023-08-17T15:59:43;32.30;45.60
418;DHT22;49;48.530;9.200;2023-08-17T16:02:11;32.40;44.80
418;DHT22;49;48.530;9.200;2023-08-17T16:04:38;32.60;43.80
418;DHT22;49;48.530;9.200;2023-08-17T16:07:05;32.60;42.60
418;DHT22;49;48.530;9.200;2023-08-17T16:09:32;32.60;42.50
418;DHT22;49;48.530;9.200;2023-08-17T16:11:59;32.40;43.80
418;DHT22;49;48.530;9.200;2023-08-17T16:14:26;32.30;44.30
418;DHT22;49;48.530;9.200;2023-08-17T16:16:53;32.40;44.30
418;DHT22;49;48.530;9.200;2023-08-17T16:19:22;32.40;43.80
418;DHT22;49;48.530;9.200;2023-08-17T16:21:49;32.40;43.70
418;DHT22;49;48.530;9.200;2023-08-17T16:24:16;32.40;43.70
418;DHT22;49;48.530;9.200;2023-08-17T16:26:43;32.40;43.70
418;DHT22;49;48.530;9.200;2023-08-17T16:29:10;32.30;42.30
418;DHT22;49;48.530;9.200;2023-08-17T16:31:37;31.60;46.40
418;DHT22;49;48.530;9.200;2023-08-17T16:34:04;31.70;46.40
418;DHT22;49;48.530;9.200;2023-08-17T16:36:33;31.90;45.60
418;DHT22;49;48.530;9.200;2023-08-17T16:39:00;32.00;44.80
418;DHT22;49;48.530;9.200;2023-08-17T16:41:27;31.70;46.40
418;DHT22;49;48.530;9.200;2023-08-17T16:43:53;31.50;48.50
418;DHT22;49;48.530;9.200;2023-08-17T16:46:21;31.70;47.30
418;DHT22;49;48.530;9.200;2023-08-17T16:48:47;32.00;44.30
418;DHT22;49;48.530;9.200;2023-08-17T16:51:14;32.20;43.30
418;DHT22;49;48.530;9.200;2023-08-17T16:53:43;32.20;42.50
418;DHT22;49;48.530;9.200;2023-08-17T16:56:15;32.20;43.10
418;DHT22;49;48.530;9.200;2023-08-17T16:58:42;32.00;44.30
418;DHT22;49;48.530;9.200;2023-08-17T17:01:09;32.10;43.00